createdAt,value
2023-04-25T00:02:09.756Z,11.80
2023-04-25T00:04:39.131Z,11.80
2023-04-25T00:07:06.431Z,11.70
2023-04-25T00:09:33.831Z,11.70
2023-04-25T00:12:03.285Z,11.60
2023-04-25T00:14:31.281Z,11.60
2023-04-25T00:16:58.880Z,11.70
2023-04-25T00:19:26.881Z,11.70
2023-04-25T00:21:54.373Z,11.70
2023-04-25T00:24:21.106Z,11.70
2023-04-25T00:26:48.540Z,11.70
2023-04-25T00:29:15.268Z,11.70
2023-04-25T00:31:42.152Z,11.60
2023-04-25T00:34:09.367Z,11.60
2023-04-25T00:36:36.252Z,11.60
2023-04-25T00:39:03.712Z,11.70
2023-04-25T00:41:31.219Z,11.70
2023-04-25T00:43:58.834Z,11.80
2023-04-25T00:46:25.560Z,11.80
2023-04-25T00:48:52.297Z,11.80
2023-04-25T00:51:21.977Z,11.90
2023-04-25T00:53:51.315Z,12.00
2023-04-25T00:56:18.929Z,12.00
2023-04-25T00:58:46.518Z,12.00
2023-04-25T01:01:14.130Z,12.00
2023-04-25T01:03:47.545Z,12.00
2023-04-25T01:06:14.477Z,12.00
2023-04-25T01:08:41.271Z,12.00
2023-04-25T01:11:08.061Z,12.00
2023-04-25T01:13:35.633Z,12.00
2023-04-25T01:16:03.559Z,12.10
2023-04-25T01:18:30.389Z,12.00
2023-04-25T01:20:59.107Z,12.10
2023-04-25T01:23:26.181Z,12.10
2023-04-25T01:25:53.581Z,12.10
2023-04-25T01:28:20.945Z,12.10
2023-04-25T01:30:48.329Z,12.20
2023-04-25T01:33:16.463Z,12.20
2023-04-25T01:35:43.309Z,12.20
2023-04-25T01:38:10.029Z,12.30
2023-04-25T01:40:41.416Z,12.40
2023-04-25T01:43:11.997Z,12.30
2023-04-25T01:45:42.138Z,12.40
2023-04-25T01:48:10.858Z,12.40
2023-04-25T01:50:39.536Z,12.30
2023-04-25T01:53:06.749Z,12.40
2023-04-25T01:55:33.563Z,12.40
2023-04-25T01:58:01.534Z,12.50
2023-04-25T02:00:28.255Z,12.40
2023-04-25T02:02:55.055Z,12.40
2023-04-25T02:05:21.835Z,12.40
2023-04-25T02:07:49.232Z,12.40
2023-04-25T02:10:15.989Z,12.50
2023-04-25T02:12:42.809Z,12.40
2023-04-25T02:15:09.876Z,12.40
2023-04-25T02:17:36.640Z,12.40
2023-04-25T02:20:04.135Z,12.40
2023-04-25T02:22:31.592Z,12.40
2023-04-25T02:24:58.954Z,12.40
2023-04-25T02:27:25.908Z,12.40
2023-04-25T02:29:52.944Z,12.40
2023-04-25T02:32:19.593Z,12.40
2023-04-25T02:34:46.334Z,12.40
2023-04-25T02:37:14.072Z,12.40
2023-04-25T02:39:40.853Z,12.40
2023-04-25T02:42:07.512Z,12.40
2023-04-25T02:44:34.213Z,12.30
2023-04-25T02:47:02.161Z,12.30
2023-04-25T02:49:31.166Z,12.30
2023-04-25T02:51:57.948Z,12.20
2023-04-25T02:54:24.688Z,12.20
2023-04-25T02:56:51.401Z,12.10
2023-04-25T02:59:19.348Z,12.00
2023-04-25T03:01:46.429Z,12.10
2023-04-25T03:04:13.163Z,12.00
2023-04-25T03:06:39.913Z,11.90
2023-04-25T03:09:06.580Z,11.80
2023-04-25T03:11:33.340Z,11.80
2023-04-25T03:14:00.211Z,11.80
2023-04-25T03:16:27.050Z,11.60
2023-04-25T03:18:53.757Z,11.50
2023-04-25T03:21:20.517Z,11.50
2023-04-25T03:23:47.265Z,11.40
2023-04-25T03:26:14.002Z,11.30
2023-04-25T03:28:41.922Z,11.20
2023-04-25T03:31:08.687Z,11.20
2023-04-25T03:33:35.624Z,11.10
2023-04-25T03:36:02.287Z,11.10
2023-04-25T03:38:28.998Z,11.10
2023-04-25T03:40:57.228Z,11.10
2023-04-25T03:43:23.928Z,11.00
2023-04-25T03:45:50.957Z,11.00
2023-04-25T03:48:17.781Z,11.00
2023-04-25T03:50:44.473Z,10.90
2023-04-25T03:53:11.128Z,10.90
2023-04-25T03:55:37.880Z,10.80
2023-04-25T03:58:04.604Z,10.80
2023-04-25T04:00:31.454Z,10.80
2023-04-25T04:02:58.423Z,10.80
2023-04-25T04:05:25.581Z,10.80
2023-04-25T04:07:52.329Z,10.80
2023-04-25T04:10:18.993Z,10.80
2023-04-25T04:12:45.803Z,10.80
2023-04-25T04:15:12.975Z,10.70
2023-04-25T04:17:39.785Z,10.70
2023-04-25T04:20:07.313Z,10.70
2023-04-25T04:22:34.007Z,10.70
2023-04-25T04:25:00.684Z,10.70
2023-04-25T04:27:31.786Z,10.70
2023-04-25T04:29:58.687Z,10.60
2023-04-25T04:32:26.415Z,10.60
2023-04-25T04:34:55.842Z,10.60
2023-04-25T04:37:22.974Z,10.60
2023-04-25T04:39:49.675Z,10.60
2023-04-25T04:42:16.600Z,10.60
2023-04-25T04:44:45.541Z,10.60
2023-04-25T04:47:13.626Z,10.50
2023-04-25T04:49:43.356Z,10.60
2023-04-25T04:52:10.047Z,10.60
2023-04-25T04:54:36.731Z,10.50
2023-04-25T04:57:06.298Z,10.40
2023-04-25T04:59:33.063Z,10.40
2023-04-25T05:01:59.764Z,10.40
2023-04-25T05:04:26.500Z,10.40
2023-04-25T05:06:53.285Z,10.40
2023-04-25T05:09:20.290Z,10.40
2023-04-25T05:11:48.301Z,10.40
2023-04-25T05:14:15.144Z,10.40
2023-04-25T05:16:41.890Z,10.40
2023-04-25T05:19:08.693Z,10.50
2023-04-25T05:21:35.674Z,10.50
2023-04-25T05:24:02.891Z,10.40
2023-04-25T05:26:31.922Z,10.40
2023-04-25T05:28:59.107Z,10.40
2023-04-25T05:31:25.890Z,10.40
2023-04-25T05:33:53.050Z,10.40
2023-04-25T05:36:20.675Z,10.40
2023-04-25T05:38:47.454Z,10.40
2023-04-25T05:41:16.279Z,10.40
2023-04-25T05:43:48.011Z,10.30
2023-04-25T05:46:14.989Z,10.30
2023-04-25T05:48:45.400Z,10.30
2023-04-25T05:51:12.141Z,10.30
2023-04-25T05:53:38.799Z,10.30
2023-04-25T05:56:05.716Z,10.30
2023-04-25T05:58:34.794Z,10.30
2023-04-25T06:01:02.741Z,10.30
2023-04-25T06:03:29.757Z,10.10
2023-04-25T06:05:56.819Z,10.10
2023-04-25T06:08:23.664Z,10.10
2023-04-25T06:10:55.562Z,10.00
2023-04-25T06:13:22.324Z,10.00
2023-04-25T06:15:49.046Z,10.00
2023-04-25T06:18:15.861Z,10.00
2023-04-25T06:20:46.300Z,10.00
2023-04-25T06:23:12.924Z,9.90
2023-04-25T06:25:42.266Z,9.90
2023-04-25T06:28:10.865Z,9.90
2023-04-25T06:30:39.001Z,9.90
2023-04-25T06:33:06.091Z,10.00
2023-04-25T06:35:36.704Z,10.00
2023-04-25T06:38:04.440Z,10.00
2023-04-25T06:40:31.172Z,10.00
2023-04-25T06:42:58.816Z,10.10
2023-04-25T06:45:25.573Z,10.00
2023-04-25T06:47:52.931Z,10.00
2023-04-25T06:50:19.814Z,10.00
2023-04-25T06:52:46.562Z,10.00
2023-04-25T06:55:13.222Z,10.00
2023-04-25T06:57:40.100Z,10.00
2023-04-25T07:00:10.033Z,9.90
2023-04-25T07:02:37.167Z,9.90
2023-04-25T07:05:05.382Z,9.90
2023-04-25T07:07:32.106Z,9.90
2023-04-25T07:09:58.862Z,9.80
2023-04-25T07:12:25.564Z,9.80
2023-04-25T07:14:52.298Z,9.70
2023-04-25T07:17:19.034Z,9.70
2023-04-25T07:19:45.975Z,9.70
2023-04-25T07:22:12.915Z,9.60
2023-04-25T07:24:40.040Z,9.60
2023-04-25T07:27:07.241Z,9.60
2023-04-25T07:29:36.894Z,9.50
2023-04-25T07:32:03.773Z,9.60
2023-04-25T07:34:31.392Z,9.60
2023-04-25T07:36:58.285Z,9.60
2023-04-25T07:39:25.064Z,9.60
2023-04-25T07:41:54.518Z,9.60
2023-04-25T07:44:22.074Z,9.50
2023-04-25T07:46:48.798Z,9.50
2023-04-25T07:49:15.772Z,9.40
2023-04-25T07:51:44.399Z,9.40
2023-04-25T07:54:19.135Z,9.50
2023-04-25T07:56:52.536Z,9.40
2023-04-25T07:59:20.033Z,9.40
2023-04-25T08:01:46.805Z,9.40
2023-04-25T08:04:13.616Z,9.40
2023-04-25T08:06:41.663Z,9.40
2023-04-25T08:09:10.267Z,9.40
2023-04-25T08:11:37.536Z,9.50
2023-04-25T08:14:04.384Z,9.50
2023-04-25T08:16:31.386Z,9.60
2023-04-25T08:18:58.183Z,9.60
2023-04-25T08:21:24.951Z,9.50
2023-04-25T08:23:51.648Z,9.40
2023-04-25T08:26:18.349Z,9.40
2023-04-25T08:28:45.387Z,9.50
2023-04-25T08:31:12.103Z,9.60
2023-04-25T08:33:38.838Z,9.60
2023-04-25T08:36:06.090Z,9.50
2023-04-25T08:38:34.354Z,9.60
2023-04-25T08:41:04.684Z,9.60
2023-04-25T08:43:34.678Z,9.60
2023-04-25T08:46:02.043Z,9.60
2023-04-25T08:48:31.995Z,9.60
2023-04-25T08:50:59.727Z,9.60
2023-04-25T08:53:29.454Z,9.60
2023-04-25T08:55:58.055Z,9.60
2023-04-25T08:58:25.461Z,9.60
2023-04-25T09:00:53.896Z,9.70
2023-04-25T09:03:21.365Z,9.70
2023-04-25T09:05:48.342Z,9.70
2023-04-25T09:08:15.068Z,9.70
2023-04-25T09:10:42.112Z,9.70
2023-04-25T09:13:12.384Z,9.60
2023-04-25T09:15:53.176Z,9.60
2023-04-25T09:18:30.808Z,9.60
2023-04-25T09:21:18.127Z,9.70
2023-04-25T09:23:50.044Z,9.70
2023-04-25T09:26:19.815Z,9.80
2023-04-25T09:28:48.914Z,9.80
2023-04-25T09:31:34.533Z,9.90
2023-04-25T09:34:02.380Z,10.00
2023-04-25T09:36:30.823Z,10.10
2023-04-25T09:39:00.384Z,10.10
2023-04-25T09:41:27.369Z,10.00
2023-04-25T09:44:00.220Z,10.00
2023-04-25T09:46:39.953Z,10.00
2023-04-25T09:49:09.662Z,10.00
2023-04-25T09:51:36.330Z,10.00
2023-04-25T09:54:04.079Z,9.90
2023-04-25T09:56:37.366Z,9.90
2023-04-25T09:59:04.718Z,9.80
2023-04-25T10:01:31.921Z,9.80
2023-04-25T10:03:59.857Z,9.90
2023-04-25T10:06:28.101Z,9.90
2023-04-25T10:08:56.893Z,9.90
2023-04-25T10:11:27.090Z,9.90
2023-04-25T10:13:54.007Z,9.90
2023-04-25T10:16:22.115Z,9.80
2023-04-25T10:18:49.702Z,9.80
2023-04-25T10:21:17.725Z,9.80
2023-04-25T10:23:46.516Z,9.80
2023-04-25T10:26:14.268Z,9.70
2023-04-25T10:29:03.997Z,9.70
2023-04-25T10:31:32.323Z,9.80
2023-04-25T10:34:00.889Z,9.70
2023-04-25T10:36:32.560Z,9.70
2023-04-25T10:39:07.821Z,9.80
2023-04-25T10:41:49.060Z,9.80
2023-04-25T10:44:16.501Z,9.80
2023-04-25T10:46:46.723Z,9.80
2023-04-25T10:49:29.537Z,9.80
2023-04-25T10:52:16.136Z,9.80
2023-04-25T10:54:47.112Z,9.80
2023-04-25T10:57:37.154Z,9.80
2023-04-25T11:00:17.456Z,9.80
2023-04-25T11:02:45.387Z,9.70
2023-04-25T11:05:21.480Z,9.70
2023-04-25T11:08:03.902Z,9.80
2023-04-25T11:10:36.620Z,9.80
2023-04-25T11:13:03.700Z,9.80
2023-04-25T11:15:30.675Z,9.90
2023-04-25T11:17:57.488Z,9.80
2023-04-25T11:20:27.227Z,9.80
2023-04-25T11:22:54.123Z,9.90
2023-04-25T11:25:21.187Z,9.80
2023-04-25T11:27:58.102Z,9.90
2023-04-25T11:30:26.530Z,10.00
2023-04-25T11:32:53.835Z,10.00
2023-04-25T11:35:23.765Z,10.10
2023-04-25T11:37:51.205Z,10.00
2023-04-25T11:40:18.586Z,10.00
2023-04-25T11:42:46.984Z,10.00
2023-04-25T11:45:14.379Z,9.90
2023-04-25T11:47:41.508Z,9.80
2023-04-25T11:50:46.340Z,9.90
2023-04-25T11:59:56.470Z,9.80
2023-04-25T12:02:40.764Z,9.90
2023-04-25T12:05:31.944Z,9.90
2023-04-25T12:08:11.595Z,10.00
2023-04-25T12:10:42.967Z,9.90
2023-04-25T12:17:00.251Z,9.90
2023-04-25T12:19:42.073Z,10.00
2023-04-25T12:22:26.848Z,10.00
2023-04-25T12:24:59.749Z,10.00
2023-04-25T12:27:30.503Z,10.00
2023-04-25T12:30:03.724Z,9.90
2023-04-25T12:32:32.359Z,9.90
2023-04-25T12:34:59.790Z,9.80
2023-04-25T12:37:30.067Z,9.90
2023-04-25T12:39:57.632Z,9.80
2023-04-25T12:42:26.376Z,9.80
2023-04-25T12:44:53.402Z,9.70
2023-04-25T12:47:25.378Z,9.80
2023-04-25T12:50:02.842Z,9.80
2023-04-25T12:52:41.396Z,9.70
2023-04-25T12:55:19.154Z,9.70
2023-04-25T12:57:55.130Z,9.60
2023-04-25T13:00:33.174Z,9.60
2023-04-25T13:03:27.120Z,9.60
2023-04-25T13:06:00.673Z,9.60
2023-04-25T13:14:03.146Z,9.60
2023-04-25T13:16:30.240Z,9.60
2023-04-25T13:18:57.577Z,9.60
2023-04-25T13:21:28.192Z,9.60
2023-04-25T13:23:59.904Z,9.70
2023-04-25T13:26:27.441Z,9.70
2023-04-25T13:28:54.686Z,9.70
2023-04-25T13:31:23.228Z,9.60
2023-04-25T13:33:50.895Z,9.70
2023-04-25T13:36:19.355Z,9.70
2023-04-25T13:38:48.646Z,9.60
2023-04-25T13:41:21.712Z,9.60
2023-04-25T13:43:51.826Z,9.50
2023-04-25T13:46:40.751Z,9.50
2023-04-25T13:49:12.833Z,9.50
2023-04-25T13:51:43.811Z,9.40
2023-04-25T13:54:14.034Z,9.40
2023-04-25T13:56:43.597Z,9.40
2023-04-25T13:59:13.625Z,9.50
2023-04-25T14:01:43.710Z,9.40
2023-04-25T14:04:11.194Z,9.40
2023-04-25T14:09:18.225Z,9.50
2023-04-25T14:11:46.039Z,9.40
2023-04-25T14:14:18.280Z,9.40
2023-04-25T14:16:48.797Z,9.40
2023-04-25T14:19:22.320Z,9.30
2023-04-25T14:21:52.952Z,9.30
2023-04-25T14:24:22.019Z,9.40
2023-04-25T14:26:51.799Z,9.40
2023-04-25T14:29:21.436Z,9.40
2023-04-25T14:31:51.535Z,9.40
2023-04-25T14:34:21.507Z,9.40
2023-04-25T14:36:54.760Z,9.30
2023-04-25T14:39:24.440Z,9.20
2023-04-25T14:41:51.380Z,9.10
2023-04-25T14:44:18.703Z,9.20
2023-04-25T14:46:53.864Z,9.20
2023-04-25T14:51:35.210Z,9.10
2023-04-25T14:53:34.647Z,9.10
2023-04-25T14:57:57.640Z,9.10
2023-04-25T14:59:55.470Z,9.10
2023-04-25T15:02:48.304Z,9.10
2023-04-25T15:05:17.285Z,9.00
2023-04-25T15:08:20.854Z,9.10
2023-04-25T15:16:55.861Z,9.00
2023-04-25T15:34:09.923Z,9.00
2023-04-25T15:36:48.041Z,9.00
2023-04-25T15:39:23.281Z,9.00
2023-04-25T15:42:00.318Z,9.00
2023-04-25T15:45:45.007Z,9.00
2023-04-25T15:48:20.151Z,8.90
2023-04-25T15:51:28.361Z,8.90
2023-04-25T15:55:22.080Z,9.00
2023-04-25T15:57:37.195Z,9.00
2023-04-25T16:00:11.806Z,9.00
2023-04-25T16:05:59.955Z,9.00
2023-04-25T16:08:36.390Z,9.00
2023-04-25T16:11:17.954Z,9.00
2023-04-25T16:17:38.897Z,8.90
2023-04-25T16:20:28.880Z,8.90
2023-04-25T16:26:50.802Z,8.90
2023-04-25T16:29:42.979Z,8.90
2023-04-25T16:39:34.529Z,8.70
2023-04-25T16:42:22.968Z,8.70
2023-04-25T16:45:26.396Z,8.70
2023-04-25T16:47:57.997Z,8.60
2023-04-25T16:53:46.771Z,8.50
2023-04-25T16:56:21.300Z,8.50
2023-04-25T16:58:55.872Z,8.50
2023-04-25T17:01:23.097Z,8.50
2023-04-25T17:03:53.268Z,8.50
2023-04-25T17:06:20.742Z,8.50
2023-04-25T17:08:47.585Z,8.40
2023-04-25T17:11:17.156Z,8.40
2023-04-25T17:13:44.513Z,8.40
2023-04-25T17:16:13.801Z,8.30
2023-04-25T17:18:42.100Z,8.30
2023-04-25T17:21:15.029Z,8.40
2023-04-25T17:23:45.556Z,8.30
2023-04-25T17:26:13.576Z,8.30
2023-04-25T17:28:43.898Z,8.30
2023-04-25T17:31:16.714Z,8.20
2023-04-25T17:33:44.870Z,8.30
2023-04-25T17:36:12.431Z,8.20
2023-04-25T17:38:39.221Z,8.30
2023-04-25T17:41:06.214Z,8.20
2023-04-25T17:43:33.383Z,8.10
2023-04-25T17:46:00.551Z,8.20
2023-04-25T17:48:27.691Z,8.30
2023-04-25T17:50:54.461Z,8.20
2023-04-25T17:53:21.320Z,8.10
2023-04-25T17:55:50.320Z,8.10
2023-04-25T17:58:17.534Z,8.10
2023-04-25T18:00:44.778Z,8.10
2023-04-25T18:03:12.060Z,8.10
2023-04-25T18:05:38.919Z,8.10
2023-04-25T18:08:06.831Z,8.10
2023-04-25T18:10:34.296Z,8.10
2023-04-25T18:13:01.193Z,8.10
2023-04-25T18:15:28.786Z,8.20
2023-04-25T18:17:57.314Z,8.10
2023-04-25T18:20:24.209Z,8.10
2023-04-25T18:22:51.207Z,8.10
2023-04-25T18:25:36.678Z,8.10
2023-04-25T18:28:09.485Z,8.10
2023-04-25T18:36:53.132Z,8.10
2023-04-25T18:39:42.576Z,8.10
2023-04-25T18:50:49.627Z,8.20
2023-04-25T18:53:22.444Z,8.10
2023-04-25T18:55:51.168Z,8.20
2023-04-25T18:58:18.973Z,8.20
2023-04-25T19:00:49.173Z,8.20
2023-04-25T19:03:18.285Z,8.20
2023-04-25T19:05:50.735Z,8.20
2023-04-25T19:08:23.405Z,8.20
2023-04-25T19:10:53.904Z,8.20
2023-04-25T19:13:21.866Z,8.20
2023-04-25T19:15:49.912Z,8.30
2023-04-25T19:18:24.060Z,8.20
2023-04-25T19:20:53.317Z,8.20
2023-04-25T19:23:25.538Z,8.30
2023-04-25T19:25:55.617Z,8.20
2023-04-25T19:28:28.751Z,8.20
2023-04-25T19:30:55.660Z,8.30
2023-04-25T19:34:01.760Z,8.20
2023-04-25T19:36:29.584Z,8.20
2023-04-25T19:39:22.763Z,8.20
2023-04-25T19:44:34.903Z,8.20
2023-04-25T19:47:07.989Z,8.20
2023-04-25T19:52:24.918Z,8.20
2023-04-25T19:57:52.128Z,8.20
2023-04-25T20:00:21.550Z,8.10
2023-04-25T20:02:48.586Z,8.10
2023-04-25T20:05:18.184Z,8.10
2023-04-25T20:07:45.452Z,8.00
2023-04-25T20:10:19.583Z,8.00
2023-04-25T20:12:51.944Z,7.90
2023-04-25T20:15:24.944Z,7.90
2023-04-25T20:17:51.920Z,7.90
2023-04-25T20:20:20.311Z,7.80
2023-04-25T20:22:47.347Z,7.80
2023-04-25T20:25:15.507Z,7.80
2023-04-25T20:27:42.717Z,7.80
2023-04-25T20:30:13.193Z,7.80
2023-04-25T20:32:40.440Z,7.80
2023-04-25T20:35:14.362Z,7.80
2023-04-25T20:37:44.671Z,7.80
2023-04-25T20:40:20.660Z,7.80
2023-04-25T20:42:47.704Z,7.90
2023-04-25T20:45:18.037Z,7.90
2023-04-25T20:47:56.975Z,7.90
2023-04-25T20:50:32.906Z,7.90
2023-04-25T20:53:06.681Z,8.00
2023-04-25T20:55:34.589Z,8.00
2023-04-25T20:58:01.420Z,8.00
2023-04-25T21:01:26.571Z,8.00
2023-04-25T21:04:12.046Z,8.10
2023-04-25T21:06:38.930Z,8.10
2023-04-25T21:09:07.069Z,8.20
2023-04-25T21:11:36.534Z,8.10
2023-04-25T21:14:03.862Z,8.10
2023-04-25T21:16:34.925Z,8.10
2023-04-25T21:23:03.658Z,8.00
2023-04-25T21:25:39.160Z,8.10
2023-04-25T21:28:07.924Z,8.00
2023-04-25T21:30:34.781Z,8.10
2023-04-25T21:33:03.582Z,8.00
2023-04-25T21:35:35.191Z,8.00
2023-04-25T21:38:02.170Z,8.00
2023-04-25T21:40:32.236Z,8.10
2023-04-25T21:43:00.436Z,8.00
2023-04-25T21:48:53.072Z,8.00
2023-04-25T21:51:21.951Z,7.90
2023-04-25T21:53:49.098Z,7.90
2023-04-25T21:59:01.912Z,8.00
2023-04-25T22:01:30.026Z,7.90
2023-04-25T22:03:57.099Z,7.90
2023-04-25T22:06:24.002Z,8.00
2023-04-25T22:08:57.736Z,8.00
2023-04-25T22:11:26.656Z,7.90
2023-04-25T22:13:57.277Z,7.90
2023-04-25T22:16:24.341Z,7.90
2023-04-25T22:18:53.256Z,7.90
2023-04-25T22:21:22.950Z,7.90
2023-04-25T22:23:53.165Z,7.90
2023-04-25T22:26:26.329Z,7.90
2023-04-25T22:28:55.649Z,7.90
2023-04-25T22:31:22.371Z,7.90
2023-04-25T22:33:49.524Z,7.80
2023-04-25T22:36:21.725Z,7.90
2023-04-25T22:38:50.596Z,7.90
2023-04-25T22:41:17.737Z,8.00
2023-04-25T22:43:47.428Z,7.90
2023-04-25T22:46:21.645Z,7.90
2023-04-25T22:48:49.016Z,7.90
2023-04-25T22:51:16.075Z,7.90
2023-04-25T22:53:49.523Z,7.90
2023-04-25T22:56:19.476Z,7.90
2023-04-25T22:58:50.230Z,7.90
2023-04-25T23:01:19.252Z,7.90
2023-04-25T23:03:47.140Z,7.90
2023-04-25T23:06:13.926Z,7.90
2023-04-25T23:08:41.813Z,7.90
2023-04-25T23:11:08.979Z,7.90
2023-04-25T23:13:38.962Z,8.00
2023-04-25T23:16:10.950Z,7.90
2023-04-25T23:18:39.402Z,7.90
2023-04-25T23:21:11.342Z,7.90
2023-04-25T23:23:38.838Z,7.80
2023-04-25T23:26:10.192Z,7.80
2023-04-25T23:28:41.699Z,7.80
2023-04-25T23:31:10.502Z,7.70
2023-04-25T23:33:37.593Z,7.70
2023-04-25T23:36:06.244Z,7.80
2023-04-25T23:38:33.386Z,7.80
2023-04-25T23:41:00.108Z,7.70
2023-04-25T23:43:26.857Z,7.70
2023-04-25T23:45:55.383Z,7.60
2023-04-25T23:48:23.005Z,7.70
2023-04-25T23:50:49.762Z,7.70
2023-04-25T23:53:16.820Z,7.70
2023-04-25T23:55:43.560Z,7.70
2023-04-25T23:58:10.587Z,7.70
